sensor_id;sensor_type;location;lat;lon;timestamp;temperature;humidity
18085;DHT22;9169;44.492;11.372;2023-04-03T00:00:24;14.70;44.80
18085;DHT22;9169;44.492;11.372;2023-04-03T00:03:11;14.70;44.90
18085;DHT22;9169;44.492;11.372;2023-04-03T00:05:39;14.70;44.80
18085;DHT22;9169;44.492;11.372;2023-04-03T00:08:10;14.70;44.90
18085;DHT22;9169;44.492;11.372;2023-04-03T00:10:38;14.70;44.90
18085;DHT22;9169;44.492;11.372;2023-04-03T00:13:08;14.70;44.90
18085;DHT22;9169;44.492;11.372;2023-04-03T00:15:38;14.70;44.90
18085;DHT22;9169;44.492;11.372;2023-04-03T00:18:08;14.70;44.90
18085;DHT22;9169;44.492;11.372;2023-04-03T00:20:36;14.70;44.80
18085;DHT22;9169;44.492;11.372;2023-04-03T00:23:06;14.70;44.80
18085;DHT22;9169;44.492;11.372;2023-04-03T00:25:36;14.70;44.70
18085;DHT22;9169;44.492;11.372;2023-04-03T00:28:05;14.70;44.80
18085;DHT22;9169;44.492;11.372;2023-04-03T00:30:34;14.70;44.70
18085;DHT22;9169;44.492;11.372;2023-04-03T00:33:03;14.70;45.10
18085;DHT22;9169;44.492;11.372;2023-04-03T00:35:32;14.70;45.00
18085;DHT22;9169;44.492;11.372;2023-04-03T00:38:02;14.60;45.00
18085;DHT22;9169;44.492;11.372;2023-04-03T00:40:36;14.60;44.90
18085;DHT22;9169;44.492;11.372;2023-04-03T00:43:13;14.60;45.00
18085;DHT22;9169;44.492;11.372;2023-04-03T00:45:44;14.60;45.10
18085;DHT22;9169;44.492;11.372;2023-04-03T00:48:17;14.60;45.00
18085;DHT22;9169;44.492;11.372;2023-04-03T00:50:47;14.60;45.40
18085;DHT22;9169;44.492;11.372;2023-04-03T00:53:19;14.60;45.40
18085;DHT22;9169;44.492;11.372;2023-04-03T00:55:51;14.50;45.40
18085;DHT22;9169;44.492;11.372;2023-04-03T00:58:26;14.50;45.20
18085;DHT22;9169;44.492;11.372;2023-04-03T01:00:58;14.50;45.20
18085;DHT22;9169;44.492;11.372;2023-04-03T01:03:27;14.50;45.20
18085;DHT22;9169;44.492;11.372;2023-04-03T01:05:56;14.40;45.30
18085;DHT22;9169;44.492;11.372;2023-04-03T01:08:25;14.40;45.40
18085;DHT22;9169;44.492;11.372;2023-04-03T01:10:57;14.40;45.50
18085;DHT22;9169;44.492;11.372;2023-04-03T01:13:28;14.30;45.60
18085;DHT22;9169;44.492;11.372;2023-04-03T01:16:00;14.30;45.80
18085;DHT22;9169;44.492;11.372;2023-04-03T01:18:30;14.30;45.80
18085;DHT22;9169;44.492;11.372;2023-04-03T01:24:09;14.30;46.00
18085;DHT22;9169;44.492;11.372;2023-04-03T01:26:41;14.20;45.70
18085;DHT22;9169;44.492;11.372;2023-04-03T01:29:10;14.10;45.60
18085;DHT22;9169;44.492;11.372;2023-04-03T01:31:51;14.10;45.50
18085;DHT22;9169;44.492;11.372;2023-04-03T01:34:20;14.00;45.70
18085;DHT22;9169;44.492;11.372;2023-04-03T01:36:50;14.00;46.00
18085;DHT22;9169;44.492;11.372;2023-04-03T01:39:20;14.00;45.90
18085;DHT22;9169;44.492;11.372;2023-04-03T01:41:49;13.90;46.10
18085;DHT22;9169;44.492;11.372;2023-04-03T01:44:31;13.90;46.10
18085;DHT22;9169;44.492;11.372;2023-04-03T01:47:01;13.80;46.00
18085;DHT22;9169;44.492;11.372;2023-04-03T01:49:30;13.70;46.40
18085;DHT22;9169;44.492;11.372;2023-04-03T01:51:59;13.80;46.30
18085;DHT22;9169;44.492;11.372;2023-04-03T01:54:28;13.70;46.30
18085;DHT22;9169;44.492;11.372;2023-04-03T01:56:56;13.70;46.20
18085;DHT22;9169;44.492;11.372;2023-04-03T01:59:26;13.80;46.40
18085;DHT22;9169;44.492;11.372;2023-04-03T02:01:55;13.80;46.50
18085;DHT22;9169;44.492;11.372;2023-04-03T02:04:25;13.80;46.40
18085;DHT22;9169;44.492;11.372;2023-04-03T02:06:54;13.80;46.60
18085;DHT22;9169;44.492;11.372;2023-04-03T02:09:23;13.70;46.40
18085;DHT22;9169;44.492;11.372;2023-04-03T02:11:52;13.80;46.40
18085;DHT22;9169;44.492;11.372;2023-04-03T02:14:21;13.80;46.30
18085;DHT22;9169;44.492;11.372;2023-04-03T02:16:51;13.80;46.40
18085;DHT22;9169;44.492;11.372;2023-04-03T02:19:22;13.80;46.60
18085;DHT22;9169;44.492;11.372;2023-04-03T02:21:52;13.80;46.70
18085;DHT22;9169;44.492;11.372;2023-04-03T02:24:21;13.80;46.60
18085;DHT22;9169;44.492;11.372;2023-04-03T02:26:50;13.90;46.70
18085;DHT22;9169;44.492;11.372;2023-04-03T02:29:19;13.90;46.70
18085;DHT22;9169;44.492;11.372;2023-04-03T02:31:48;13.90;46.70
18085;DHT22;9169;44.492;11.372;2023-04-03T02:34:17;13.90;46.60
18085;DHT22;9169;44.492;11.372;2023-04-03T02:36:47;14.00;46.60
18085;DHT22;9169;44.492;11.372;2023-04-03T02:39:18;14.00;46.60
18085;DHT22;9169;44.492;11.372;2023-04-03T02:41:47;14.00;46.70
18085;DHT22;9169;44.492;11.372;2023-04-03T02:44:22;14.00;46.90
18085;DHT22;9169;44.492;11.372;2023-04-03T02:46:52;14.00;46.90
18085;DHT22;9169;44.492;11.372;2023-04-03T02:49:21;14.10;47.00
18085;DHT22;9169;44.492;11.372;2023-04-03T02:51:50;14.10;47.00
18085;DHT22;9169;44.492;11.372;2023-04-03T02:54:20;14.10;47.00
18085;DHT22;9169;44.492;11.372;2023-04-03T02:56:54;14.10;47.20
18085;DHT22;9169;44.492;11.372;2023-04-03T02:59:22;14.10;47.00
18085;DHT22;9169;44.492;11.372;2023-04-03T03:01:53;14.10;46.90
18085;DHT22;9169;44.492;11.372;2023-04-03T03:04:22;14.20;47.00
18085;DHT22;9169;44.492;11.372;2023-04-03T03:06:51;14.20;46.90
18085;DHT22;9169;44.492;11.372;2023-04-03T03:09:22;14.20;46.90
18085;DHT22;9169;44.492;11.372;2023-04-03T03:11:50;14.20;46.90
18085;DHT22;9169;44.492;11.372;2023-04-03T03:14:19;14.20;47.00
18085;DHT22;9169;44.492;11.372;2023-04-03T03:16:47;14.30;47.20
18085;DHT22;9169;44.492;11.372;2023-04-03T03:19:16;14.30;47.30
18085;DHT22;9169;44.492;11.372;2023-04-03T03:21:45;14.30;47.10
18085;DHT22;9169;44.492;11.372;2023-04-03T03:24:14;14.30;47.10
18085;DHT22;9169;44.492;11.372;2023-04-03T03:26:44;14.30;47.00
18085;DHT22;9169;44.492;11.372;2023-04-03T03:29:13;14.30;47.00
18085;DHT22;9169;44.492;11.372;2023-04-03T03:31:43;14.30;46.90
18085;DHT22;9169;44.492;11.372;2023-04-03T03:34:11;14.30;47.00
18085;DHT22;9169;44.492;11.372;2023-04-03T03:36:40;14.30;46.90
18085;DHT22;9169;44.492;11.372;2023-04-03T03:39:09;14.30;46.90
18085;DHT22;9169;44.492;11.372;2023-04-03T03:41:38;14.40;46.90
18085;DHT22;9169;44.492;11.372;2023-04-03T03:44:09;14.40;46.90
18085;DHT22;9169;44.492;11.372;2023-04-03T03:46:37;14.40;46.80
18085;DHT22;9169;44.492;11.372;2023-04-03T03:49:06;14.40;46.70
18085;DHT22;9169;44.492;11.372;2023-04-03T03:51:35;14.40;46.70
18085;DHT22;9169;44.492;11.372;2023-04-03T03:54:06;14.30;46.50
18085;DHT22;9169;44.492;11.372;2023-04-03T03:56:36;14.30;46.40
18085;DHT22;9169;44.492;11.372;2023-04-03T03:59:05;14.30;46.30
18085;DHT22;9169;44.492;11.372;2023-04-03T04:01:35;14.30;46.30
18085;DHT22;9169;44.492;11.372;2023-04-03T04:04:04;14.30;46.40
18085;DHT22;9169;44.492;11.372;2023-04-03T04:06:33;14.30;46.30
18085;DHT22;9169;44.492;11.372;2023-04-03T04:09:04;14.30;46.20
18085;DHT22;9169;44.492;11.372;2023-04-03T04:11:33;14.40;46.30
18085;DHT22;9169;44.492;11.372;2023-04-03T04:14:02;14.30;46.20
18085;DHT22;9169;44.492;11.372;2023-04-03T04:16:31;14.30;46.30
18085;DHT22;9169;44.492;11.372;2023-04-03T04:19:07;14.30;46.20
18085;DHT22;9169;44.492;11.372;2023-04-03T04:21:37;14.30;46.30
18085;DHT22;9169;44.492;11.372;2023-04-03T04:24:08;14.30;46.30
18085;DHT22;9169;44.492;11.372;2023-04-03T04:26:37;14.30;46.50
18085;DHT22;9169;44.492;11.372;2023-04-03T04:29:09;14.30;46.60
18085;DHT22;9169;44.492;11.372;2023-04-03T04:31:38;14.20;46.30
18085;DHT22;9169;44.492;11.372;2023-04-03T04:34:08;14.20;46.10
18085;DHT22;9169;44.492;11.372;2023-04-03T04:36:37;14.20;46.10
18085;DHT22;9169;44.492;11.372;2023-04-03T04:39:07;14.20;46.00
18085;DHT22;9169;44.492;11.372;2023-04-03T04:41:35;14.20;45.90
18085;DHT22;9169;44.492;11.372;2023-04-03T04:44:05;14.20;45.90
18085;DHT22;9169;44.492;11.372;2023-04-03T04:46:36;14.20;46.10
18085;DHT22;9169;44.492;11.372;2023-04-03T04:49:06;14.20;46.10
18085;DHT22;9169;44.492;11.372;2023-04-03T04:51:36;14.20;46.10
18085;DHT22;9169;44.492;11.372;2023-04-03T04:54:12;14.20;46.20
18085;DHT22;9169;44.492;11.372;2023-04-03T04:56:41;14.20;46.20
18085;DHT22;9169;44.492;11.372;2023-04-03T04:59:10;14.20;46.30
18085;DHT22;9169;44.492;11.372;2023-04-03T05:01:39;14.20;46.60
18085;DHT22;9169;44.492;11.372;2023-04-03T05:04:12;14.20;46.90
18085;DHT22;9169;44.492;11.372;2023-04-03T05:06:44;14.20;47.10
18085;DHT22;9169;44.492;11.372;2023-04-03T05:09:17;14.10;47.10
18085;DHT22;9169;44.492;11.372;2023-04-03T05:11:47;14.10;47.20
18085;DHT22;9169;44.492;11.372;2023-04-03T05:14:19;14.10;47.40
18085;DHT22;9169;44.492;11.372;2023-04-03T05:16:48;14.10;47.50
18085;DHT22;9169;44.492;11.372;2023-04-03T05:19:22;14.00;47.60
18085;DHT22;9169;44.492;11.372;2023-04-03T05:21:52;14.00;47.70
18085;DHT22;9169;44.492;11.372;2023-04-03T05:24:22;14.00;47.90
18085;DHT22;9169;44.492;11.372;2023-04-03T05:26:51;14.00;47.90
18085;DHT22;9169;44.492;11.372;2023-04-03T05:29:20;14.00;47.80
18085;DHT22;9169;44.492;11.372;2023-04-03T05:31:50;14.00;47.60
18085;DHT22;9169;44.492;11.372;2023-04-03T05:34:19;14.00;47.60
18085;DHT22;9169;44.492;11.372;2023-04-03T05:36:52;14.00;47.50
18085;DHT22;9169;44.492;11.372;2023-04-03T05:39:21;14.00;47.60
18085;DHT22;9169;44.492;11.372;2023-04-03T05:41:51;14.00;47.70
18085;DHT22;9169;44.492;11.372;2023-04-03T05:44:20;14.00;47.60
18085;DHT22;9169;44.492;11.372;2023-04-03T05:46:49;14.00;47.50
18085;DHT22;9169;44.492;11.372;2023-04-03T05:49:19;14.10;47.30
18085;DHT22;9169;44.492;11.372;2023-04-03T05:51:48;14.10;47.30
18085;DHT22;9169;44.492;11.372;2023-04-03T05:54:25;14.10;47.40
18085;DHT22;9169;44.492;11.372;2023-04-03T05:57:11;14.10;47.30
18085;DHT22;9169;44.492;11.372;2023-04-03T05:59:41;14.10;47.10
18085;DHT22;9169;44.492;11.372;2023-04-03T06:02:12;14.20;47.30
18085;DHT22;9169;44.492;11.372;2023-04-03T06:04:41;14.20;47.20
18085;DHT22;9169;44.492;11.372;2023-04-03T06:07:11;14.20;47.10
18085;DHT22;9169;44.492;11.372;2023-04-03T06:09:42;14.30;47.20
18085;DHT22;9169;44.492;11.372;2023-04-03T06:12:11;14.30;47.00
18085;DHT22;9169;44.492;11.372;2023-04-03T06:14:40;14.40;47.00
18085;DHT22;9169;44.492;11.372;2023-04-03T06:17:09;14.40;46.70
18085;DHT22;9169;44.492;11.372;2023-04-03T06:19:39;14.50;46.80
18085;DHT22;9169;44.492;11.372;2023-04-03T06:22:08;14.50;46.80
18085;DHT22;9169;44.492;11.372;2023-04-03T06:24:38;14.50;46.80
18085;DHT22;9169;44.492;11.372;2023-04-03T06:27:09;14.60;46.80
18085;DHT22;9169;44.492;11.372;2023-04-03T06:29:39;14.60;46.60
18085;DHT22;9169;44.492;11.372;2023-04-03T06:32:08;14.60;46.50
18085;DHT22;9169;44.492;11.372;2023-04-03T06:34:36;14.60;46.50
18085;DHT22;9169;44.492;11.372;2023-04-03T06:37:05;14.60;46.40
18085;DHT22;9169;44.492;11.372;2023-04-03T06:39:34;14.70;46.40
18085;DHT22;9169;44.492;11.372;2023-04-03T06:42:03;14.70;46.40
18085;DHT22;9169;44.492;11.372;2023-04-03T06:44:39;14.80;46.50
18085;DHT22;9169;44.492;11.372;2023-04-03T06:47:10;14.80;46.50
18085;DHT22;9169;44.492;11.372;2023-04-03T06:49:39;14.80;46.40
18085;DHT22;9169;44.492;11.372;2023-04-03T06:52:08;14.80;46.70
18085;DHT22;9169;44.492;11.372;2023-04-03T06:54:39;14.80;46.70
18085;DHT22;9169;44.492;11.372;2023-04-03T06:57:08;14.80;46.70
18085;DHT22;9169;44.492;11.372;2023-04-03T06:59:38;14.80;46.80
18085;DHT22;9169;44.492;11.372;2023-04-03T07:02:10;14.80;47.00
18085;DHT22;9169;44.492;11.372;2023-04-03T07:04:40;14.80;47.10
18085;DHT22;9169;44.492;11.372;2023-04-03T07:07:08;14.80;47.10
18085;DHT22;9169;44.492;11.372;2023-04-03T07:09:37;14.80;47.10
18085;DHT22;9169;44.492;11.372;2023-04-03T07:12:06;14.90;47.10
18085;DHT22;9169;44.492;11.372;2023-04-03T07:14:34;14.90;47.10
18085;DHT22;9169;44.492;11.372;2023-04-03T07:17:04;14.90;47.00
18085;DHT22;9169;44.492;11.372;2023-04-03T07:19:33;15.00;47.10
18085;DHT22;9169;44.492;11.372;2023-04-03T07:22:01;15.00;47.10
18085;DHT22;9169;44.492;11.372;2023-04-03T07:24:30;15.00;47.10
18085;DHT22;9169;44.492;11.372;2023-04-03T07:26:59;15.10;47.00
18085;DHT22;9169;44.492;11.372;2023-04-03T07:29:27;15.10;47.00
18085;DHT22;9169;44.492;11.372;2023-04-03T07:31:56;15.20;47.10
18085;DHT22;9169;44.492;11.372;2023-04-03T07:34:28;15.20;47.00
18085;DHT22;9169;44.492;11.372;2023-04-03T07:36:57;15.20;47.00
18085;DHT22;9169;44.492;11.372;2023-04-03T07:39:26;15.30;46.90
18085;DHT22;9169;44.492;11.372;2023-04-03T07:41:55;15.30;46.80
18085;DHT22;9169;44.492;11.372;2023-04-03T07:44:24;15.30;46.80
18085;DHT22;9169;44.492;11.372;2023-04-03T07:46:54;15.30;46.90
18085;DHT22;9169;44.492;11.372;2023-04-03T07:49:23;15.40;47.00
18085;DHT22;9169;44.492;11.372;2023-04-03T07:51:54;15.50;47.00
18085;DHT22;9169;44.492;11.372;2023-04-03T07:54:23;15.50;47.10
18085;DHT22;9169;44.492;11.372;2023-04-03T07:56:52;15.50;47.00
18085;DHT22;9169;44.492;11.372;2023-04-03T07:59:20;15.60;47.10
18085;DHT22;9169;44.492;11.372;2023-04-03T08:01:49;15.60;47.30
18085;DHT22;9169;44.492;11.372;2023-04-03T08:04:17;15.60;47.40
18085;DHT22;9169;44.492;11.372;2023-04-03T08:06:47;15.70;47.80
18085;DHT22;9169;44.492;11.372;2023-04-03T08:09:18;15.70;47.80
18085;DHT22;9169;44.492;11.372;2023-04-03T08:11:47;15.80;48.20
18085;DHT22;9169;44.492;11.372;2023-04-03T08:14:16;15.90;48.50
18085;DHT22;9169;44.492;11.372;2023-04-03T08:16:46;16.10;48.80
18085;DHT22;9169;44.492;11.372;2023-04-03T08:19:15;16.20;48.70
18085;DHT22;9169;44.492;11.372;2023-04-03T08:21:51;16.30;48.80
18085;DHT22;9169;44.492;11.372;2023-04-03T08:24:22;16.40;48.70
18085;DHT22;9169;44.492;11.372;2023-04-03T08:26:50;16.50;48.50
18085;DHT22;9169;44.492;11.372;2023-04-03T08:29:19;16.60;48.20
18085;DHT22;9169;44.492;11.372;2023-04-03T08:31:48;16.60;48.00
18085;DHT22;9169;44.492;11.372;2023-04-03T08:34:18;16.60;48.00
18085;DHT22;9169;44.492;11.372;2023-04-03T08:36:47;16.70;48.10
18085;DHT22;9169;44.492;11.372;2023-04-03T08:39:15;16.70;48.10
18085;DHT22;9169;44.492;11.372;2023-04-03T08:41:46;16.70;48.10
18085;DHT22;9169;44.492;11.372;2023-04-03T08:44:19;16.80;48.30
18085;DHT22;9169;44.492;11.372;2023-04-03T08:47:00;16.90;48.30
18085;DHT22;9169;44.492;11.372;2023-04-03T08:49:32;17.00;48.30
18085;DHT22;9169;44.492;11.372;2023-04-03T08:52:05;17.10;48.00
18085;DHT22;9169;44.492;11.372;2023-04-03T08:54:49;17.10;47.80
18085;DHT22;9169;44.492;11.372;2023-04-03T08:57:25;17.20;47.80
18085;DHT22;9169;44.492;11.372;2023-04-03T08:59:57;17.10;47.70
18085;DHT22;9169;44.492;11.372;2023-04-03T09:02:31;17.10;47.60
18085;DHT22;9169;44.492;11.372;2023-04-03T09:05:02;17.10;47.40
18085;DHT22;9169;44.492;11.372;2023-04-03T09:07:35;17.10;47.10
18085;DHT22;9169;44.492;11.372;2023-04-03T09:10:12;17.10;47.10
18085;DHT22;9169;44.492;11.372;2023-04-03T09:12:46;17.10;47.00
18085;DHT22;9169;44.492;11.372;2023-04-03T09:15:18;17.10;47.00
18085;DHT22;9169;44.492;11.372;2023-04-03T09:18:00;17.10;46.90
18085;DHT22;9169;44.492;11.372;2023-04-03T09:20:39;17.20;47.00
18085;DHT22;9169;44.492;11.372;2023-04-03T09:23:18;17.20;46.90
18085;DHT22;9169;44.492;11.372;2023-04-03T09:25:51;17.20;46.80
18085;DHT22;9169;44.492;11.372;2023-04-03T09:28:23;17.20;46.70
18085;DHT22;9169;44.492;11.372;2023-04-03T09:30:51;17.10;47.20
18085;DHT22;9169;44.492;11.372;2023-04-03T09:33:21;17.00;46.60
18085;DHT22;9169;44.492;11.372;2023-04-03T09:35:50;17.00;46.60
18085;DHT22;9169;44.492;11.372;2023-04-03T09:38:21;17.00;46.50
18085;DHT22;9169;44.492;11.372;2023-04-03T09:41:04;16.90;46.50
18085;DHT22;9169;44.492;11.372;2023-04-03T09:43:35;16.90;46.80
18085;DHT22;9169;44.492;11.372;2023-04-03T09:46:18;16.90;46.70
18085;DHT22;9169;44.492;11.372;2023-04-03T09:48:51;16.90;46.80
18085;DHT22;9169;44.492;11.372;2023-04-03T09:51:26;16.90;46.70
18085;DHT22;9169;44.492;11.372;2023-04-03T09:53:56;16.90;46.60
18085;DHT22;9169;44.492;11.372;2023-04-03T09:56:27;16.80;46.50
18085;DHT22;9169;44.492;11.372;2023-04-03T09:59:13;16.80;46.40
18085;DHT22;9169;44.492;11.372;2023-04-03T10:01:57;16.70;46.50
18085;DHT22;9169;44.492;11.372;2023-04-03T10:04:37;16.70;46.50
18085;DHT22;9169;44.492;11.372;2023-04-03T10:07:29;16.70;46.40
18085;DHT22;9169;44.492;11.372;2023-04-03T10:09:59;16.70;46.60
18085;DHT22;9169;44.492;11.372;2023-04-03T10:12:28;16.70;46.60
18085;DHT22;9169;44.492;11.372;2023-04-03T10:15:00;16.80;46.80
18085;DHT22;9169;44.492;11.372;2023-04-03T10:17:37;16.80;47.10
18085;DHT22;9169;44.492;11.372;2023-04-03T10:20:23;16.90;47.30
18085;DHT22;9169;44.492;11.372;2023-04-03T10:23:02;17.00;47.30
18085;DHT22;9169;44.492;11.372;2023-04-03T10:25:37;17.10;47.20
18085;DHT22;9169;44.492;11.372;2023-04-03T10:28:12;17.20;46.60
18085;DHT22;9169;44.492;11.372;2023-04-03T10:30:51;17.30;46.30
18085;DHT22;9169;44.492;11.372;2023-04-03T10:36:26;17.40;45.30
18085;DHT22;9169;44.492;11.372;2023-04-03T10:39:01;17.40;45.00
18085;DHT22;9169;44.492;11.372;2023-04-03T10:41:39;17.40;44.90
18085;DHT22;9169;44.492;11.372;2023-04-03T10:44:16;17.40;45.00
18085;DHT22;9169;44.492;11.372;2023-04-03T10:46:52;17.40;45.00
18085;DHT22;9169;44.492;11.372;2023-04-03T10:49:31;17.40;44.90
18085;DHT22;9169;44.492;11.372;2023-04-03T10:52:07;17.50;44.80
18085;DHT22;9169;44.492;11.372;2023-04-03T10:54:40;17.50;44.50
18085;DHT22;9169;44.492;11.372;2023-04-03T10:57:10;17.50;44.30
18085;DHT22;9169;44.492;11.372;2023-04-03T10:59:43;17.60;44.30
18085;DHT22;9169;44.492;11.372;2023-04-03T11:02:19;17.70;44.00
18085;DHT22;9169;44.492;11.372;2023-04-03T11:04:55;17.90;43.60
18085;DHT22;9169;44.492;11.372;2023-04-03T11:07:27;18.20;43.90
18085;DHT22;9169;44.492;11.372;2023-04-03T11:10:03;18.70;43.90
18085;DHT22;9169;44.492;11.372;2023-04-03T11:12:38;19.50;44.00
18085;DHT22;9169;44.492;11.372;2023-04-03T11:15:13;20.20;42.90
18085;DHT22;9169;44.492;11.372;2023-04-03T11:17:48;20.70;41.10
18085;DHT22;9169;44.492;11.372;2023-04-03T11:20:21;21.30;41.30
18085;DHT22;9169;44.492;11.372;2023-04-03T11:23:00;22.20;40.60
18085;DHT22;9169;44.492;11.372;2023-04-03T11:25:32;23.10;39.70
18085;DHT22;9169;44.492;11.372;2023-04-03T11:28:04;23.70;39.10
18085;DHT22;9169;44.492;11.372;2023-04-03T11:30:42;23.80;38.20
18085;DHT22;9169;44.492;11.372;2023-04-03T11:33:24;24.10;37.40
18085;DHT22;9169;44.492;11.372;2023-04-03T11:35:59;24.10;36.90
18085;DHT22;9169;44.492;11.372;2023-04-03T11:38:35;24.30;37.10
18085;DHT22;9169;44.492;11.372;2023-04-03T11:41:08;24.60;36.40
18085;DHT22;9169;44.492;11.372;2023-04-03T11:43:41;24.70;35.80
18085;DHT22;9169;44.492;11.372;2023-04-03T11:46:10;24.50;35.00
18085;DHT22;9169;44.492;11.372;2023-04-03T11:48:49;24.40;34.90
18085;DHT22;9169;44.492;11.372;2023-04-03T11:51:51;24.80;34.70
18085;DHT22;9169;44.492;11.372;2023-04-03T11:54:46;25.40;34.80
18085;DHT22;9169;44.492;11.372;2023-04-03T11:58:01;26.00;34.30
18085;DHT22;9169;44.492;11.372;2023-04-03T12:00:48;26.50;33.00
18085;DHT22;9169;44.492;11.372;2023-04-03T12:07:01;27.10;32.00
18085;DHT22;9169;44.492;11.372;2023-04-03T12:09:57;27.10;31.20
18085;DHT22;9169;44.492;11.372;2023-04-03T12:12:37;27.40;30.90
18085;DHT22;9169;44.492;11.372;2023-04-03T12:18:57;28.40;30.50
18085;DHT22;9169;44.492;11.372;2023-04-03T12:24:51;29.50;29.70
18085;DHT22;9169;44.492;11.372;2023-04-03T12:27:33;29.50;29.30
18085;DHT22;9169;44.492;11.372;2023-04-03T12:30:15;29.40;28.70
18085;DHT22;9169;44.492;11.372;2023-04-03T12:33:14;29.20;28.50
18085;DHT22;9169;44.492;11.372;2023-04-03T12:35:57;29.30;28.70
18085;DHT22;9169;44.492;11.372;2023-04-03T12:39:03;29.50;28.60
18085;DHT22;9169;44.492;11.372;2023-04-03T12:41:43;29.70;28.20
18085;DHT22;9169;44.492;11.372;2023-04-03T12:44:38;29.60;27.90
18085;DHT22;9169;44.492;11.372;2023-04-03T12:47:22;29.50;27.70
18085;DHT22;9169;44.492;11.372;2023-04-03T12:49:52;29.70;27.70
18085;DHT22;9169;44.492;11.372;2023-04-03T12:52:32;30.00;27.90
18085;DHT22;9169;44.492;11.372;2023-04-03T12:55:02;30.20;27.10
18085;DHT22;9169;44.492;11.372;2023-04-03T12:57:33;30.30;27.40
18085;DHT22;9169;44.492;11.372;2023-04-03T13:00:28;30.50;27.30
18085;DHT22;9169;44.492;11.372;2023-04-03T13:02:57;30.50;27.00
18085;DHT22;9169;44.492;11.372;2023-04-03T13:05:26;30.40;27.20
18085;DHT22;9169;44.492;11.372;2023-04-03T13:07:59;30.20;26.80
18085;DHT22;9169;44.492;11.372;2023-04-03T13:10:29;30.30;27.10
18085;DHT22;9169;44.492;11.372;2023-04-03T13:13:09;30.30;26.80
18085;DHT22;9169;44.492;11.372;2023-04-03T13:15:42;29.90;26.10
18085;DHT22;9169;44.492;11.372;2023-04-03T13:18:23;29.30;26.60
18085;DHT22;9169;44.492;11.372;2023-04-03T13:20:52;29.20;26.80
18085;DHT22;9169;44.492;11.372;2023-04-03T13:23:24;29.30;27.20
18085;DHT22;9169;44.492;11.372;2023-04-03T13:25:53;29.60;27.30
18085;DHT22;9169;44.492;11.372;2023-04-03T13:28:24;29.90;26.70
18085;DHT22;9169;44.492;11.372;2023-04-03T13:31:03;30.20;27.00
18085;DHT22;9169;44.492;11.372;2023-04-03T13:33:34;30.70;26.80
18085;DHT22;9169;44.492;11.372;2023-04-03T13:36:07;31.20;26.60
18085;DHT22;9169;44.492;11.372;2023-04-03T13:38:36;31.50;26.60
18085;DHT22;9169;44.492;11.372;2023-04-03T13:41:23;31.90;26.10
18085;DHT22;9169;44.492;11.372;2023-04-03T13:43:53;32.10;25.70
18085;DHT22;9169;44.492;11.372;2023-04-03T13:46:26;32.30;25.90
18085;DHT22;9169;44.492;11.372;2023-04-03T13:48:56;32.50;25.80
18085;DHT22;9169;44.492;11.372;2023-04-03T13:51:27;32.60;25.70
18085;DHT22;9169;44.492;11.372;2023-04-03T13:53:58;32.80;25.20
18085;DHT22;9169;44.492;11.372;2023-04-03T13:56:31;32.90;25.10
18085;DHT22;9169;44.492;11.372;2023-04-03T13:59:06;32.90;24.80
18085;DHT22;9169;44.492;11.372;2023-04-03T14:01:52;32.80;24.60
18085;DHT22;9169;44.492;11.372;2023-04-03T14:04:23;32.80;24.90
18085;DHT22;9169;44.492;11.372;2023-04-03T14:06:53;33.00;25.00
18085;DHT22;9169;44.492;11.372;2023-04-03T14:09:24;33.00;24.70
18085;DHT22;9169;44.492;11.372;2023-04-03T14:12:00;32.80;24.50
18085;DHT22;9169;44.492;11.372;2023-04-03T14:14:35;32.70;24.60
18085;DHT22;9169;44.492;11.372;2023-04-03T14:17:14;32.80;24.20
18085;DHT22;9169;44.492;11.372;2023-04-03T14:19:43;32.80;24.20
18085;DHT22;9169;44.492;11.372;2023-04-03T14:22:15;32.90;24.40
18085;DHT22;9169;44.492;11.372;2023-04-03T14:24:46;33.10;24.20
18085;DHT22;9169;44.492;11.372;2023-04-03T14:27:18;33.20;24.30
18085;DHT22;9169;44.492;11.372;2023-04-03T14:29:51;33.30;23.50
18085;DHT22;9169;44.492;11.372;2023-04-03T14:32:24;33.10;23.30
18085;DHT22;9169;44.492;11.372;2023-04-03T14:34:54;32.90;23.80
18085;DHT22;9169;44.492;11.372;2023-04-03T14:37:25;32.80;23.70
18085;DHT22;9169;44.492;11.372;2023-04-03T14:39:56;32.70;23.70
18085;DHT22;9169;44.492;11.372;2023-04-03T14:42:27;32.50;23.40
18085;DHT22;9169;44.492;11.372;2023-04-03T14:44:58;32.00;23.10
18085;DHT22;9169;44.492;11.372;2023-04-03T14:47:28;31.60;23.20
18085;DHT22;9169;44.492;11.372;2023-04-03T14:49:59;31.20;23.40
18085;DHT22;9169;44.492;11.372;2023-04-03T14:52:31;30.90;23.60
18085;DHT22;9169;44.492;11.372;2023-04-03T14:55:01;30.40;23.70
18085;DHT22;9169;44.492;11.372;2023-04-03T14:57:30;30.00;23.90
18085;DHT22;9169;44.492;11.372;2023-04-03T15:00:00;29.40;24.00
18085;DHT22;9169;44.492;11.372;2023-04-03T15:02:32;29.00;24.10
18085;DHT22;9169;44.492;11.372;2023-04-03T15:05:04;28.70;24.50
18085;DHT22;9169;44.492;11.372;2023-04-03T15:07:34;28.40;24.30
18085;DHT22;9169;44.492;11.372;2023-04-03T15:10:14;28.00;24.70
18085;DHT22;9169;44.492;11.372;2023-04-03T15:12:44;27.70;24.90
18085;DHT22;9169;44.492;11.372;2023-04-03T15:15:15;27.50;25.10
18085;DHT22;9169;44.492;11.372;2023-04-03T15:17:44;27.30;25.00
18085;DHT22;9169;44.492;11.372;2023-04-03T15:20:17;27.00;24.90
18085;DHT22;9169;44.492;11.372;2023-04-03T15:22:46;26.60;25.00
18085;DHT22;9169;44.492;11.372;2023-04-03T15:25:15;26.30;25.20
18085;DHT22;9169;44.492;11.372;2023-04-03T15:27:45;26.00;25.20
18085;DHT22;9169;44.492;11.372;2023-04-03T15:30:17;25.70;25.40
18085;DHT22;9169;44.492;11.372;2023-04-03T15:32:46;25.40;25.40
18085;DHT22;9169;44.492;11.372;2023-04-03T15:35:15;25.10;26.00
18085;DHT22;9169;44.492;11.372;2023-04-03T15:37:44;24.80;25.70
18085;DHT22;9169;44.492;11.372;2023-04-03T15:40:13;24.60;25.70
18085;DHT22;9169;44.492;11.372;2023-04-03T15:42:42;24.50;25.90
18085;DHT22;9169;44.492;11.372;2023-04-03T15:45:10;24.30;25.90
18085;DHT22;9169;44.492;11.372;2023-04-03T15:47:41;24.20;26.00
18085;DHT22;9169;44.492;11.372;2023-04-03T15:50:10;24.00;26.00
18085;DHT22;9169;44.492;11.372;2023-04-03T15:52:39;23.80;26.00
18085;DHT22;9169;44.492;11.372;2023-04-03T15:55:08;23.60;26.00
18085;DHT22;9169;44.492;11.372;2023-04-03T15:57:37;23.50;26.20
18085;DHT22;9169;44.492;11.372;2023-04-03T16:00:07;23.40;26.30
18085;DHT22;9169;44.492;11.372;2023-04-03T16:02:36;23.30;26.40
18085;DHT22;9169;44.492;11.372;2023-04-03T16:05:09;23.20;26.50
18085;DHT22;9169;44.492;11.372;2023-04-03T16:07:39;23.10;26.50
18085;DHT22;9169;44.492;11.372;2023-04-03T16:10:09;23.10;26.50
18085;DHT22;9169;44.492;11.372;2023-04-03T16:12:38;23.00;26.60
18085;DHT22;9169;44.492;11.372;2023-04-03T16:15:07;23.00;27.00
18085;DHT22;9169;44.492;11.372;2023-04-03T16:17:37;23.00;27.30